createdAt,value
2023-03-29T00:00:40.645Z,61.9
2023-03-29T00:01:41.639Z,61.8
2023-03-29T00:02:43.106Z,61.8
2023-03-29T00:03:44.432Z,61.8
2023-03-29T00:04:46.176Z,61.8
2023-03-29T00:05:47.220Z,61.8
2023-03-29T00:06:48.379Z,61.8
2023-03-29T00:07:49.347Z,61.8
2023-03-29T00:08:50.460Z,61.8
2023-03-29T00:09:51.626Z,61.8
2023-03-29T00:10:52.790Z,61.8
2023-03-29T00:11:53.761Z,61.8
2023-03-29T00:12:54.932Z,61.8
2023-03-29T00:13:56.096Z,61.8
2023-03-29T00:14:57.260Z,61.8
2023-03-29T00:15:58.425Z,61.7
2023-03-29T00:17:00.011Z,61.8
2023-03-29T00:18:01.197Z,61.9
2023-03-29T00:19:02.341Z,61.9
2023-03-29T00:20:03.505Z,62
2023-03-29T00:21:05.275Z,62
2023-03-29T00:22:06.444Z,62
2023-03-29T00:23:07.612Z,62.1
2023-03-29T00:24:08.779Z,62.1
2023-03-29T00:25:09.939Z,62.2
2023-03-29T00:26:11.110Z,62.2
2023-03-29T00:27:12.277Z,62.3
2023-03-29T00:28:13.440Z,62.3
2023-03-29T00:29:14.602Z,62.3
2023-03-29T00:30:15.896Z,62.3
2023-03-29T00:31:17.253Z,62.2
2023-03-29T00:32:18.598Z,62.2
2023-03-29T00:33:19.736Z,62.1
2023-03-29T00:34:20.906Z,62
2023-03-29T00:35:22.190Z,62
2023-03-29T00:36:23.320Z,61.9
2023-03-29T00:37:24.490Z,61.8
2023-03-29T00:38:25.652Z,61.7
2023-03-29T00:39:26.822Z,61.7
2023-03-29T00:40:27.986Z,61.7
2023-03-29T00:41:29.155Z,61.7
2023-03-29T00:42:29.928Z,61.7
2023-03-29T00:43:31.097Z,61.6
2023-03-29T00:44:32.262Z,61.7
2023-03-29T00:45:33.425Z,61.6
2023-03-29T00:46:34.809Z,61.5
2023-03-29T00:47:36.430Z,61.4
2023-03-29T00:48:37.597Z,61.3
2023-03-29T00:49:38.564Z,61.2
2023-03-29T00:50:39.576Z,61.1
2023-03-29T00:51:40.742Z,60.9
2023-03-29T00:52:41.758Z,60.8
2023-03-29T00:53:42.924Z,60.7
2023-03-29T00:54:43.935Z,60.6
2023-03-29T00:55:45.561Z,60.6
2023-03-29T00:56:46.918Z,60.6
2023-03-29T00:57:48.063Z,60.5
2023-03-29T00:58:49.085Z,60.5
2023-03-29T00:59:50.245Z,60.5
2023-03-29T01:00:51.228Z,60.5
2023-03-29T01:01:52.515Z,60.6
2023-03-29T01:02:53.815Z,60.6
2023-03-29T01:03:55.678Z,60.7
2023-03-29T01:04:56.835Z,60.7
2023-03-29T01:05:58.004Z,60.8
2023-03-29T01:06:59.401Z,60.9
2023-03-29T01:08:00.403Z,60.9
2023-03-29T01:09:01.376Z,61
2023-03-29T01:10:02.347Z,61.1
2023-03-29T01:11:04.579Z,61.1
2023-03-29T01:12:05.725Z,61.2
2023-03-29T01:13:06.897Z,61.2
2023-03-29T01:14:07.725Z,61.3
2023-03-29T01:15:08.888Z,61.4
2023-03-29T01:16:10.149Z,61.5
2023-03-29T01:17:11.304Z,61.6
2023-03-29T01:18:12.420Z,61.6
2023-03-29T01:19:13.542Z,61.7
2023-03-29T01:20:14.814Z,61.8
2023-03-29T01:21:15.988Z,61.7
2023-03-29T01:22:17.147Z,61.7
2023-03-29T01:23:18.319Z,61.8
2023-03-29T01:24:19.335Z,61.8
2023-03-29T01:25:20.306Z,61.9
2023-03-29T01:26:21.474Z,61.9
2023-03-29T01:27:22.635Z,62
2023-03-29T01:28:23.804Z,62
2023-03-29T01:29:24.971Z,61.9
2023-03-29T01:30:25.940Z,61.9
2023-03-29T01:31:26.971Z,62
2023-03-29T01:32:28.441Z,62
2023-03-29T01:33:29.612Z,62
2023-03-29T01:34:30.751Z,62
2023-03-29T01:35:31.922Z,62
2023-03-29T01:36:33.086Z,62
2023-03-29T01:37:34.257Z,62
2023-03-29T01:38:35.426Z,62
2023-03-29T01:39:36.442Z,62
2023-03-29T01:40:37.429Z,62
2023-03-29T01:41:38.604Z,61.9
2023-03-29T01:42:39.619Z,61.9
2023-03-29T01:43:40.778Z,61.9
2023-03-29T01:44:41.943Z,61.9
2023-03-29T01:45:43.266Z,61.8
2023-03-29T01:46:44.423Z,61.8
2023-03-29T01:47:45.453Z,61.8
2023-03-29T01:48:46.645Z,61.8
2023-03-29T01:49:47.588Z,61.8
2023-03-29T01:50:48.751Z,61.7
2023-03-29T01:51:49.921Z,61.7
2023-03-29T01:52:51.096Z,61.7
2023-03-29T01:53:52.255Z,61.7
2023-03-29T01:54:53.420Z,61.7
2023-03-29T01:55:54.603Z,61.7
2023-03-29T01:56:55.994Z,61.7
2023-03-29T01:57:56.963Z,61.7
2023-03-29T01:58:58.095Z,61.7
2023-03-29T01:59:59.271Z,61.7
2023-03-29T02:01:01.424Z,61.7
2023-03-29T02:02:02.612Z,61.8
2023-03-29T02:03:04.127Z,61.8
2023-03-29T02:04:05.281Z,61.8
2023-03-29T02:05:06.301Z,61.9
2023-03-29T02:06:07.264Z,61.9
2023-03-29T02:07:08.432Z,61.9
2023-03-29T02:08:09.601Z,62
2023-03-29T02:09:10.759Z,62
2023-03-29T02:10:11.939Z,62
2023-03-29T02:11:13.092Z,62
2023-03-29T02:12:14.258Z,62.1
2023-03-29T02:13:15.429Z,62.1
2023-03-29T02:14:16.443Z,62.2
2023-03-29T02:15:17.602Z,62.2
2023-03-29T02:16:18.747Z,62.2
2023-03-29T02:17:19.909Z,62.2
2023-03-29T02:18:20.866Z,62.2
2023-03-29T02:19:22.062Z,62.2
2023-03-29T02:20:23.194Z,62.3
2023-03-29T02:21:24.364Z,62.3
2023-03-29T02:22:25.528Z,62.4
2023-03-29T02:23:26.712Z,62.4
2023-03-29T02:24:27.974Z,62.5
2023-03-29T02:25:29.147Z,62.5
2023-03-29T02:26:30.306Z,62.6
2023-03-29T02:27:31.472Z,62.7
2023-03-29T02:28:32.653Z,62.7
2023-03-29T02:29:33.800Z,62.8
2023-03-29T02:30:34.969Z,62.9
2023-03-29T02:31:36.477Z,63
2023-03-29T02:32:37.760Z,63.2
2023-03-29T02:33:38.851Z,63.3
2023-03-29T02:34:40.034Z,63.4
2023-03-29T02:35:41.199Z,63.5
2023-03-29T02:36:42.357Z,63.6
2023-03-29T02:37:43.520Z,63.7
2023-03-29T02:38:44.687Z,63.8
2023-03-29T02:39:45.657Z,63.8
2023-03-29T02:40:46.824Z,63.9
2023-03-29T02:41:47.992Z,64
2023-03-29T02:42:49.000Z,64
2023-03-29T02:43:50.168Z,64.1
2023-03-29T02:44:51.141Z,64.2
2023-03-29T02:45:52.308Z,64.3
2023-03-29T02:46:53.739Z,64.4
2023-03-29T02:47:55.095Z,64.5
2023-03-29T02:48:56.257Z,64.5
2023-03-29T02:49:57.459Z,64.6
2023-03-29T02:50:58.596Z,64.7
2023-03-29T02:51:59.582Z,64.8
2023-03-29T02:53:00.760Z,64.8
2023-03-29T02:54:01.917Z,64.9
2023-03-29T02:55:02.953Z,65
2023-03-29T02:56:04.113Z,65.1
2023-03-29T02:57:05.482Z,65.2
2023-03-29T02:58:06.673Z,65.3
2023-03-29T02:59:07.848Z,65.3
2023-03-29T03:00:09.016Z,65.4
2023-03-29T03:01:09.976Z,65.4
2023-03-29T03:02:11.181Z,65.5
2023-03-29T03:03:12.890Z,65.5
2023-03-29T03:04:14.228Z,65.6
2023-03-29T03:05:15.222Z,65.7
2023-03-29T03:06:16.371Z,65.7
2023-03-29T03:07:17.346Z,65.7
2023-03-29T03:08:18.630Z,65.7
2023-03-29T03:09:19.806Z,65.8
2023-03-29T03:10:20.761Z,65.8
2023-03-29T03:11:21.927Z,65.9
2023-03-29T03:12:22.744Z,65.9
2023-03-29T03:13:23.574Z,66
2023-03-29T03:14:24.734Z,66
2023-03-29T03:15:25.902Z,66.1
2023-03-29T03:16:27.134Z,66.2
2023-03-29T03:17:28.416Z,66.3
2023-03-29T03:18:29.577Z,66.3
2023-03-29T03:19:30.741Z,66.4
2023-03-29T03:20:32.045Z,66.4
2023-03-29T03:21:33.180Z,66.5
2023-03-29T03:22:34.343Z,66.5
2023-03-29T03:23:35.504Z,66.6
2023-03-29T03:24:36.691Z,66.6
2023-03-29T03:25:37.837Z,66.7
2023-03-29T03:26:39.017Z,66.8
2023-03-29T03:27:40.180Z,66.9
2023-03-29T03:28:41.344Z,66.9
2023-03-29T03:29:42.546Z,67
2023-03-29T03:30:43.874Z,67
2023-03-29T03:31:45.696Z,67.1
2023-03-29T03:32:46.997Z,67.1
2023-03-29T03:33:48.154Z,67.1
2023-03-29T03:34:49.312Z,67.2
2023-03-29T03:35:50.566Z,67.2
2023-03-29T03:36:51.806Z,67.2
2023-03-29T03:37:52.975Z,67.3
2023-03-29T03:38:54.139Z,67.3
2023-03-29T03:39:55.303Z,67.3
2023-03-29T03:40:56.465Z,67.3
2023-03-29T03:41:57.636Z,67.4
2023-03-29T03:42:58.800Z,67.5
2023-03-29T03:43:59.973Z,67.5
2023-03-29T03:45:01.128Z,67.6
2023-03-29T03:46:02.556Z,67.7
2023-03-29T03:47:03.719Z,67.7
2023-03-29T03:48:04.932Z,67.8
2023-03-29T03:49:13.831Z,67.8
2023-03-29T03:50:14.997Z,67.9
2023-03-29T03:51:16.186Z,68
2023-03-29T03:52:17.324Z,68
2023-03-29T03:53:18.490Z,68.1
2023-03-29T03:54:19.655Z,68.2
2023-03-29T03:55:20.821Z,68.2
2023-03-29T03:56:21.988Z,68.3
2023-03-29T03:57:23.307Z,68.4
2023-03-29T03:58:24.471Z,68.5
2023-03-29T03:59:25.631Z,68.6
2023-03-29T04:00:26.791Z,68.7
2023-03-29T04:01:27.960Z,68.7
2023-03-29T04:02:29.620Z,68.8
2023-03-29T04:03:31.056Z,68.8
2023-03-29T04:04:32.534Z,68.9
2023-03-29T04:05:33.767Z,68.9
2023-03-29T04:06:34.964Z,69
2023-03-29T04:07:36.104Z,69
2023-03-29T04:08:37.270Z,69.1
2023-03-29T04:09:38.435Z,69.1
2023-03-29T04:10:39.605Z,69.2
2023-03-29T04:11:40.770Z,69.2
2023-03-29T04:12:41.940Z,69.3
2023-03-29T04:13:43.098Z,69.4
2023-03-29T04:14:44.266Z,69.4
2023-03-29T04:15:45.501Z,69.5
2023-03-29T04:16:46.748Z,69.6
2023-03-29T04:17:48.151Z,69.6
2023-03-29T04:18:49.624Z,69.7
2023-03-29T04:19:50.867Z,69.8
2023-03-29T04:20:52.037Z,69.9
2023-03-29T04:21:53.261Z,70
2023-03-29T04:22:54.467Z,70.1
2023-03-29T04:23:55.640Z,70.2
2023-03-29T04:24:56.804Z,70.3
2023-03-29T04:25:57.965Z,70.4
2023-03-29T04:26:59.133Z,70.5
2023-03-29T04:28:00.301Z,70.6
2023-03-29T04:29:01.465Z,70.6
2023-03-29T04:30:02.636Z,70.6
2023-03-29T04:31:04.878Z,70.7
2023-03-29T04:32:06.174Z,70.7
2023-03-29T04:33:07.303Z,70.8
2023-03-29T04:34:08.584Z,70.9
2023-03-29T04:35:09.747Z,70.9
2023-03-29T04:36:11.001Z,71
2023-03-29T04:37:12.182Z,71.1
2023-03-29T04:38:13.319Z,71.1
2023-03-29T04:39:14.485Z,71.2
2023-03-29T04:40:15.658Z,71.2
2023-03-29T04:41:16.852Z,71.3
2023-03-29T04:42:17.995Z,71.4
2023-03-29T04:43:19.157Z,71.4
2023-03-29T04:44:20.320Z,71.5
2023-03-29T04:45:21.607Z,71.5
2023-03-29T04:46:23.146Z,71.6
2023-03-29T04:47:24.554Z,71.7
2023-03-29T04:48:25.704Z,71.7
2023-03-29T04:49:27.008Z,71.8
2023-03-29T04:50:28.181Z,71.9
2023-03-29T04:51:29.345Z,71.9
2023-03-29T04:52:30.539Z,72
2023-03-29T04:53:31.680Z,72
2023-03-29T04:54:32.850Z,72.1
2023-03-29T04:55:34.017Z,72.2
2023-03-29T04:56:35.179Z,72.3
2023-03-29T04:57:36.337Z,72.3
2023-03-29T04:58:37.508Z,72.4
2023-03-29T04:59:38.671Z,72.4
2023-03-29T05:00:39.835Z,72.5
2023-03-29T05:01:41.133Z,72.6
2023-03-29T05:02:42.491Z,72.6
2023-03-29T05:03:43.671Z,72.7
2023-03-29T05:04:44.881Z,72.7
2023-03-29T05:05:46.082Z,72.8
2023-03-29T05:06:47.246Z,72.9
2023-03-29T05:07:48.502Z,72.9
2023-03-29T05:08:49.643Z,73
2023-03-29T05:09:50.813Z,73
2023-03-29T05:10:51.984Z,73
2023-03-29T05:11:53.141Z,73.1
2023-03-29T05:12:54.658Z,73.1
2023-03-29T05:13:55.828Z,73.2
2023-03-29T05:14:56.994Z,73.3
2023-03-29T05:15:58.189Z,73.4
2023-03-29T05:16:59.392Z,73.4
2023-03-29T05:18:00.754Z,73.5
2023-03-29T05:19:01.940Z,73.5
2023-03-29T05:20:03.109Z,73.6
2023-03-29T05:21:05.317Z,73.6
2023-03-29T05:22:06.493Z,73.7
2023-03-29T05:23:07.762Z,73.7
2023-03-29T05:24:09.139Z,73.7
2023-03-29T05:25:10.314Z,73.8
2023-03-29T05:26:11.472Z,73.8
2023-03-29T05:27:12.640Z,73.9
2023-03-29T05:28:13.807Z,73.9
2023-03-29T05:29:14.971Z,73.9
2023-03-29T05:30:16.253Z,73.9
2023-03-29T05:31:18.057Z,73.9
2023-03-29T05:32:19.212Z,74
2023-03-29T05:33:20.377Z,74
2023-03-29T05:34:21.543Z,74.1
2023-03-29T05:35:22.716Z,74.1
2023-03-29T05:36:23.875Z,74.2
2023-03-29T05:37:25.044Z,74.2
2023-03-29T05:38:26.233Z,74.2
2023-03-29T05:39:27.367Z,74.3
2023-03-29T05:40:28.541Z,74.3
2023-03-29T05:41:29.706Z,74.3
2023-03-29T05:42:30.871Z,74.4
2023-03-29T05:43:32.047Z,74.4
2023-03-29T05:44:33.216Z,74.4
2023-03-29T05:45:34.682Z,74.5
2023-03-29T05:46:35.842Z,74.5
2023-03-29T05:47:37.138Z,74.5
2023-03-29T05:48:38.287Z,74.6
2023-03-29T05:49:39.455Z,74.6
2023-03-29T05:50:40.621Z,74.6
2023-03-29T05:51:41.780Z,74.6
2023-03-29T05:52:42.998Z,74.7
2023-03-29T05:53:44.188Z,74.7
2023-03-29T05:54:45.343Z,74.7
2023-03-29T05:55:46.505Z,74.7
2023-03-29T05:56:47.691Z,74.7
2023-03-29T05:57:48.847Z,74.7
2023-03-29T05:58:50.396Z,74.8
2023-03-29T05:59:52.088Z,74.8
2023-03-29T06:00:53.259Z,74.8
2023-03-29T06:01:54.718Z,74.8
2023-03-29T06:03:20.752Z,74.9
2023-03-29T06:04:23.212Z,75
2023-03-29T06:05:24.482Z,75
2023-03-29T06:06:25.649Z,75
2023-03-29T06:07:26.816Z,75.1
2023-03-29T06:08:28.022Z,75.1
2023-03-29T06:09:29.252Z,75.1
2023-03-29T06:10:30.386Z,75.1
2023-03-29T06:11:31.554Z,75.1
2023-03-29T06:12:32.831Z,75.1
2023-03-29T06:13:34.016Z,75.1
2023-03-29T06:14:35.163Z,75.1
2023-03-29T06:15:36.325Z,75.1
2023-03-29T06:16:38.090Z,75.2
2023-03-29T06:17:40.130Z,75.2
2023-03-29T06:18:41.373Z,75.3
2023-03-29T06:19:42.554Z,75.3
2023-03-29T06:20:43.770Z,75.3
2023-03-29T06:21:44.939Z,75.3
2023-03-29T06:22:46.109Z,75.3
2023-03-29T06:23:47.587Z,75.3
2023-03-29T06:24:49.053Z,75.3
2023-03-29T06:25:50.189Z,75.3
2023-03-29T06:26:51.355Z,75.3
2023-03-29T06:27:52.558Z,75.3
2023-03-29T06:28:53.694Z,75.3
2023-03-29T06:29:54.854Z,75.3
2023-03-29T06:30:56.555Z,75.3
2023-03-29T06:31:58.056Z,75.3
2023-03-29T06:32:59.263Z,75.3
2023-03-29T06:34:00.398Z,75.3
2023-03-29T06:35:01.563Z,75.3
2023-03-29T06:36:02.768Z,75.3
2023-03-29T06:37:03.900Z,75.3
2023-03-29T06:38:05.064Z,75.2
2023-03-29T06:39:06.231Z,75.2
2023-03-29T06:40:07.425Z,75.2
2023-03-29T06:41:08.655Z,75.1
2023-03-29T06:42:22.325Z,75.1
2023-03-29T06:43:23.644Z,75
2023-03-29T06:44:24.816Z,75
2023-03-29T06:45:29.926Z,75
2023-03-29T06:46:31.277Z,74.9
2023-03-29T06:47:32.602Z,74.9
2023-03-29T06:48:33.794Z,74.8
2023-03-29T06:49:34.970Z,74.7
2023-03-29T06:50:36.136Z,74.7
2023-03-29T06:51:37.293Z,74.6
2023-03-29T06:52:38.460Z,74.6
2023-03-29T06:53:39.626Z,74.6
2023-03-29T06:54:40.794Z,74.5
2023-03-29T06:55:42.136Z,74.4
2023-03-29T06:56:43.710Z,74.3
2023-03-29T06:57:44.850Z,74.3
2023-03-29T06:58:46.018Z,74.2
2023-03-29T06:59:47.182Z,74.1
2023-03-29T07:00:48.346Z,74.1
2023-03-29T07:01:49.539Z,74
2023-03-29T07:02:51.043Z,74
2023-03-29T07:03:52.503Z,73.9
2023-03-29T07:04:53.639Z,73.9
2023-03-29T07:05:54.809Z,73.8
2023-03-29T07:06:55.973Z,73.7
2023-03-29T07:07:57.319Z,73.7
2023-03-29T07:08:58.287Z,73.7
2023-03-29T07:09:59.459Z,73.6
2023-03-29T07:11:01.202Z,73.6
2023-03-29T07:12:02.733Z,73.6
2023-03-29T07:13:03.976Z,73.5
2023-03-29T07:14:05.281Z,73.4
2023-03-29T07:15:06.556Z,73.4
2023-03-29T07:16:07.795Z,73.3
2023-03-29T07:17:08.940Z,73.3
2023-03-29T07:18:10.449Z,73.2
2023-03-29T07:19:11.698Z,73.2
2023-03-29T07:20:12.865Z,73.1
2023-03-29T07:21:14.056Z,73
2023-03-29T07:22:15.229Z,73
2023-03-29T07:23:16.377Z,72.9
2023-03-29T07:24:17.556Z,72.8
2023-03-29T07:25:18.724Z,72.8
2023-03-29T07:26:30.952Z,72.7
2023-03-29T07:27:32.227Z,72.7
2023-03-29T07:28:33.391Z,72.7
2023-03-29T07:29:34.557Z,72.7
2023-03-29T07:30:35.726Z,72.6
2023-03-29T07:31:36.911Z,72.6
2023-03-29T07:32:38.237Z,72.6
2023-03-29T07:33:40.145Z,72.5
2023-03-29T07:34:41.505Z,72.5
2023-03-29T07:35:42.761Z,72.4
2023-03-29T07:36:43.972Z,72.2
2023-03-29T07:37:45.137Z,72.1
2023-03-29T07:38:46.300Z,72
2023-03-29T07:39:47.476Z,71.9
2023-03-29T07:40:48.642Z,71.8
2023-03-29T07:41:49.839Z,71.7
2023-03-29T07:42:51.079Z,71.6
2023-03-29T07:43:52.349Z,71.5
2023-03-29T07:44:53.518Z,71.4
2023-03-29T07:45:54.926Z,71.3
2023-03-29T07:46:56.124Z,71.2
2023-03-29T07:47:57.684Z,71.1
2023-03-29T07:48:58.909Z,71
2023-03-29T07:50:00.115Z,70.9
2023-03-29T07:51:02.362Z,70.8
2023-03-29T07:52:03.651Z,70.7
2023-03-29T07:53:04.804Z,70.5
2023-03-29T07:54:05.969Z,70.3
2023-03-29T07:55:07.186Z,70.1
2023-03-29T07:56:08.375Z,70.1
2023-03-29T07:57:09.988Z,70
2023-03-29T07:58:11.254Z,69.9
2023-03-29T07:59:12.583Z,69.7
2023-03-29T08:00:13.755Z,69.5
2023-03-29T08:01:20.284Z,69.2
2023-03-29T08:02:21.516Z,69.1
2023-03-29T08:03:22.999Z,69
2023-03-29T08:04:24.607Z,68.9
2023-03-29T08:05:42.228Z,68.7
2023-03-29T08:06:43.588Z,68.6
2023-03-29T08:07:44.754Z,68.5
2023-03-29T08:08:45.911Z,68.5
2023-03-29T08:09:47.077Z,68.6
2023-03-29T08:10:48.240Z,68.5
2023-03-29T08:11:49.413Z,68.3
2023-03-29T08:12:50.611Z,68.2
2023-03-29T08:13:51.752Z,68.1
2023-03-29T08:14:53.050Z,68
2023-03-29T08:15:54.213Z,67.9
2023-03-29T08:16:55.553Z,67.8
2023-03-29T08:17:57.115Z,67.7
2023-03-29T08:18:58.300Z,67.5
2023-03-29T08:19:59.464Z,67.4
2023-03-29T08:21:01.315Z,67.3
2023-03-29T08:22:02.655Z,67.2
2023-03-29T08:23:03.815Z,67.1
2023-03-29T08:24:04.984Z,66.9
2023-03-29T08:25:06.152Z,66.6
2023-03-29T08:26:07.312Z,66.4
2023-03-29T08:27:08.482Z,66.2
2023-03-29T08:28:09.674Z,66.1
2023-03-29T08:29:10.812Z,66
2023-03-29T08:30:11.979Z,65.9
2023-03-29T08:31:13.419Z,65.9
2023-03-29T08:32:14.673Z,65.6
2023-03-29T08:33:16.200Z,65.5
2023-03-29T08:34:17.455Z,65.4
2023-03-29T08:35:18.645Z,65.3
2023-03-29T08:36:20.093Z,65.2
2023-03-29T08:37:21.231Z,65.1
2023-03-29T08:38:22.399Z,64.8
2023-03-29T08:39:23.567Z,64.6
2023-03-29T08:40:24.733Z,64.5
2023-03-29T08:41:25.902Z,64.4
2023-03-29T08:42:27.067Z,64.4
2023-03-29T08:43:28.279Z,64.4
2023-03-29T08:44:29.509Z,64.3
2023-03-29T08:45:30.676Z,64.2
2023-03-29T08:46:36.458Z,64.1
2023-03-29T08:47:37.640Z,64
2023-03-29T08:48:38.786Z,63.9
2023-03-29T08:49:39.954Z,63.8
2023-03-29T08:50:41.125Z,63.7
2023-03-29T08:51:42.298Z,63.6
2023-03-29T08:52:43.455Z,63.6
2023-03-29T08:53:44.621Z,63.5
2023-03-29T08:54:45.793Z,63.5
2023-03-29T08:55:46.953Z,63.4
2023-03-29T08:56:48.771Z,63.3
2023-03-29T08:57:49.905Z,63.1
2023-03-29T08:58:51.370Z,63
2023-03-29T08:59:52.641Z,63
2023-03-29T09:00:53.810Z,63
2023-03-29T09:01:55.146Z,62.8
2023-03-29T09:02:56.491Z,62.7
2023-03-29T09:03:57.987Z,62.7
2023-03-29T09:04:59.242Z,62.7
2023-03-29T09:06:00.404Z,62.7
2023-03-29T09:07:01.575Z,62.7
2023-03-29T09:08:02.740Z,62.7
2023-03-29T09:09:03.904Z,62.7
2023-03-29T09:10:05.075Z,62.7
2023-03-29T09:11:06.238Z,62.7
2023-03-29T09:12:07.415Z,62.7
2023-03-29T09:13:08.650Z,62.7
2023-03-29T09:14:09.843Z,62.6
2023-03-29T09:15:10.979Z,62.4
2023-03-29T09:16:12.304Z,62.4
2023-03-29T09:17:13.444Z,62.3
2023-03-29T09:18:14.770Z,62.3
2023-03-29T09:19:15.938Z,62.2
2023-03-29T09:20:17.096Z,62.2
2023-03-29T09:21:18.266Z,62.1
2023-03-29T09:22:19.443Z,62.1
2023-03-29T09:23:20.589Z,62.1
2023-03-29T09:24:21.771Z,62.1
2023-03-29T09:25:22.927Z,62.1
2023-03-29T09:26:24.097Z,62
2023-03-29T09:27:25.259Z,61.9
2023-03-29T09:28:26.426Z,61.9
2023-03-29T09:29:27.616Z,61.8
2023-03-29T09:30:28.762Z,61.6
2023-03-29T09:31:30.106Z,61.5
2023-03-29T09:32:31.278Z,61.3
2023-03-29T09:33:32.510Z,61.3
2023-03-29T09:34:33.678Z,61.1
2023-03-29T09:35:34.733Z,61
2023-03-29T09:36:36.006Z,60.9
2023-03-29T09:37:37.167Z,61
2023-03-29T09:38:38.337Z,60.9
2023-03-29T09:39:39.498Z,60.7
2023-03-29T09:40:40.668Z,60.5
2023-03-29T09:41:41.836Z,60.4
2023-03-29T09:42:42.800Z,60.3
2023-03-29T09:43:43.776Z,60.2
2023-03-29T09:44:45.248Z,60.1
2023-03-29T09:45:46.568Z,59.9
2023-03-29T09:46:47.529Z,59.8
2023-03-29T09:47:48.655Z,59.7
2023-03-29T09:48:49.805Z,59.6
2023-03-29T09:49:50.817Z,59.4
2023-03-29T09:50:52.117Z,59.3
2023-03-29T09:51:53.285Z,59.2
2023-03-29T09:52:54.448Z,59.1
2023-03-29T09:53:55.618Z,59
2023-03-29T09:54:56.784Z,59
2023-03-29T09:55:57.947Z,58.9
2023-03-29T09:56:58.982Z,58.9
2023-03-29T09:58:00.322Z,58.9
2023-03-29T09:59:01.294Z,58.8
2023-03-29T10:00:02.497Z,58.8
2023-03-29T10:01:04.661Z,58.7
2023-03-29T10:02:05.990Z,58.6
2023-03-29T10:03:11.304Z,58.6
2023-03-29T10:04:12.520Z,58.6
2023-03-29T10:05:13.599Z,58.6
2023-03-29T10:06:14.572Z,58.5
2023-03-29T10:07:15.737Z,58.5
2023-03-29T10:08:20.400Z,58.5
2023-03-29T10:09:21.802Z,58.5
2023-03-29T10:10:22.978Z,58.4
2023-03-29T10:11:24.194Z,58.4
2023-03-29T10:12:25.010Z,58.3
2023-03-29T10:13:26.179Z,58.3
2023-03-29T10:14:27.347Z,58.3
2023-03-29T10:15:31.150Z,58.1
2023-03-29T10:16:32.558Z,58.1
2023-03-29T10:17:33.673Z,58.1
2023-03-29T10:18:34.815Z,58
2023-03-29T10:19:36.045Z,57.9
2023-03-29T10:20:37.223Z,57.8
2023-03-29T10:21:38.385Z,57.8
2023-03-29T10:22:39.400Z,57.7
2023-03-29T10:23:40.564Z,57.6
2023-03-29T10:24:41.730Z,57.4
2023-03-29T10:25:43.833Z,57.3
2023-03-29T10:26:44.996Z,57.1
2023-03-29T10:27:46.163Z,57
2023-03-29T10:28:47.333Z,57
2023-03-29T10:29:48.496Z,56.8
2023-03-29T10:30:49.838Z,56.8
2023-03-29T10:31:51.190Z,56.6
2023-03-29T10:32:52.446Z,56.6
2023-03-29T10:33:53.598Z,56.6
2023-03-29T10:34:54.766Z,56.6
2023-03-29T10:35:56.042Z,56.5
2023-03-29T10:36:57.236Z,56.7
2023-03-29T10:37:58.393Z,56.7
2023-03-29T10:38:59.567Z,56.7
2023-03-29T10:40:00.748Z,56.6
2023-03-29T10:41:02.515Z,56.6
2023-03-29T10:42:03.832Z,56.5
2023-03-29T10:43:05.016Z,56.4
2023-03-29T10:44:06.292Z,56.3
2023-03-29T10:45:07.455Z,56.2
2023-03-29T10:46:08.878Z,56.2
2023-03-29T10:47:10.108Z,55.8
2023-03-29T10:48:11.302Z,55.9
2023-03-29T10:49:12.449Z,56
2023-03-29T10:50:13.764Z,56
2023-03-29T10:51:15.051Z,56
2023-03-29T10:52:16.225Z,55.9
2023-03-29T10:53:17.380Z,55.8
2023-03-29T10:54:18.541Z,55.7
2023-03-29T10:55:19.717Z,55.6
2023-03-29T10:56:20.875Z,55.5
2023-03-29T10:57:23.843Z,55.3
2023-03-29T10:58:24.996Z,55.3
2023-03-29T10:59:26.167Z,55.2
2023-03-29T11:00:27.325Z,55.1
2023-03-29T11:01:28.704Z,55
2023-03-29T11:02:30.435Z,54.8
2023-03-29T11:03:32.122Z,54.7
2023-03-29T11:04:33.371Z,54.6
2023-03-29T11:05:34.530Z,54.5
2023-03-29T11:06:36.137Z,54.6
2023-03-29T11:07:37.289Z,54.7
2023-03-29T11:08:38.460Z,54.9
2023-03-29T11:09:39.633Z,55
2023-03-29T11:10:40.789Z,54.8
2023-03-29T11:11:42.123Z,54.2
2023-03-29T11:12:43.274Z,54
2023-03-29T11:13:44.437Z,53.6
2023-03-29T11:14:45.611Z,53.4
2023-03-29T11:15:46.811Z,53.5
2023-03-29T11:16:48.031Z,53.4
2023-03-29T11:17:49.341Z,53.6
2023-03-29T11:18:50.486Z,53.6
2023-03-29T11:19:51.456Z,53.6
2023-03-29T11:20:52.623Z,53.8
2023-03-29T11:21:53.438Z,53.9
2023-03-29T11:22:54.620Z,54
2023-03-29T11:23:55.775Z,53.8
2023-03-29T11:24:56.945Z,53.5
2023-03-29T11:25:58.116Z,53.4
2023-03-29T11:26:59.126Z,53.4
2023-03-29T11:28:00.119Z,53.4
2023-03-29T11:29:01.389Z,53.4
2023-03-29T11:30:02.557Z,53.3
2023-03-29T11:31:04.386Z,53.3
2023-03-29T11:32:05.830Z,53.4
2023-03-29T11:33:07.298Z,53.4
2023-03-29T11:34:08.449Z,53.3
2023-03-29T11:35:09.419Z,53.5
2023-03-29T11:36:10.678Z,53.7
2023-03-29T11:37:11.821Z,53.6
2023-03-29T11:38:12.987Z,53.7
2023-03-29T11:39:14.156Z,53.7
2023-03-29T11:40:15.336Z,53.9
2023-03-29T11:41:16.486Z,54.1
2023-03-29T11:42:17.655Z,54.1
2023-03-29T11:43:18.816Z,54.2
2023-03-29T11:44:19.986Z,54.3
2023-03-29T11:45:21.152Z,54.2
2023-03-29T11:46:22.312Z,54.2
2023-03-29T11:47:23.644Z,54.2
2023-03-29T11:48:24.761Z,54.2
2023-03-29T11:49:25.750Z,53.9
2023-03-29T11:50:26.735Z,53.8
2023-03-29T11:51:27.883Z,53.6
2023-03-29T11:52:28.857Z,53.4
2023-03-29T11:53:29.830Z,53.2
2023-03-29T11:54:30.844Z,53.2
2023-03-29T11:55:31.818Z,53.2
2023-03-29T11:56:32.780Z,53.2
2023-03-29T11:57:33.945Z,53.4
2023-03-29T11:58:39.511Z,53.5
2023-03-29T11:59:40.498Z,53.9
2023-03-29T12:00:41.666Z,53.7
2023-03-29T12:01:42.929Z,53.7
2023-03-29T12:02:44.419Z,53.7
2023-03-29T12:03:48.008Z,53.7
2023-03-29T12:04:49.147Z,53.9
2023-03-29T12:05:50.315Z,54.1
2023-03-29T12:06:51.482Z,54.1
2023-03-29T12:07:52.464Z,54.2
2023-03-29T12:08:53.617Z,54.4
2023-03-29T12:09:54.591Z,54.5
2023-03-29T12:10:55.765Z,54.5
2023-03-29T12:11:56.724Z,54.5
2023-03-29T12:12:57.696Z,54.6
2023-03-29T12:13:58.859Z,54.6
2023-03-29T12:15:00.027Z,54.7
2023-03-29T12:16:01.195Z,54.7
2023-03-29T12:17:02.597Z,54.5
2023-03-29T12:18:03.984Z,54.3
2023-03-29T12:19:05.034Z,54.2
2023-03-29T12:20:15.874Z,54.1
2023-03-29T12:21:17.038Z,54.1
2023-03-29T12:22:18.027Z,54.2
2023-03-29T12:23:19.179Z,54.2
2023-03-29T12:24:20.336Z,54.2
2023-03-29T12:25:23.636Z,54.2
2023-03-29T12:26:24.797Z,54.2
2023-03-29T12:27:25.967Z,54.2
2023-03-29T12:28:26.934Z,54.3
2023-03-29T12:29:27.903Z,54.4
2023-03-29T12:30:29.070Z,54.7
2023-03-29T12:31:30.279Z,54.7
2023-03-29T12:32:31.559Z,54.8
2023-03-29T12:33:32.723Z,54.5
2023-03-29T12:34:33.864Z,54.4
2023-03-29T12:35:35.241Z,54.6
2023-03-29T12:36:36.392Z,54.6
2023-03-29T12:37:37.560Z,54.8
2023-03-29T12:38:38.735Z,54.8
2023-03-29T12:39:39.897Z,54.8
2023-03-29T12:40:40.909Z,54.7
2023-03-29T12:41:42.172Z,54.6
2023-03-29T12:42:43.342Z,54.6
2023-03-29T12:43:44.506Z,54.5
2023-03-29T12:44:45.670Z,54.4
2023-03-29T12:45:46.855Z,54.5
2023-03-29T12:46:48.059Z,54.5
2023-03-29T12:47:49.261Z,54.4
2023-03-29T12:48:50.416Z,54.3
2023-03-29T12:49:51.562Z,54.3
2023-03-29T12:50:52.729Z,54.1
2023-03-29T12:51:53.895Z,54.1
2023-03-29T12:52:55.062Z,54.1
2023-03-29T12:53:56.229Z,53.9
2023-03-29T12:54:57.220Z,53.7
2023-03-29T12:55:58.175Z,53.6
2023-03-29T12:56:59.448Z,53.5
2023-03-29T12:58:00.515Z,53.4
2023-03-29T12:59:01.669Z,53.4
2023-03-29T13:00:02.848Z,53.3
2023-03-29T13:01:06.870Z,53.2
2023-03-29T13:02:08.078Z,53.3
2023-03-29T13:03:09.330Z,53.3
2023-03-29T13:04:10.443Z,53.3
2023-03-29T13:05:11.929Z,53.2
2023-03-29T13:06:13.072Z,53.1
2023-03-29T13:07:17.255Z,53.1
2023-03-29T13:08:18.425Z,53
2023-03-29T13:09:19.582Z,53.1
2023-03-29T13:10:20.751Z,53
2023-03-29T13:11:21.919Z,52.9
2023-03-29T13:12:23.090Z,52.8
2023-03-29T13:13:24.252Z,52.8
2023-03-29T13:14:25.218Z,52.8
2023-03-29T13:15:26.387Z,52.9
2023-03-29T13:16:27.884Z,52.9
2023-03-29T13:17:31.681Z,53
2023-03-29T13:18:32.828Z,53
2023-03-29T13:19:34.017Z,53.1
2023-03-29T13:20:35.240Z,53.2
2023-03-29T13:21:36.410Z,53.3
2023-03-29T13:22:37.570Z,53.4
2023-03-29T13:23:38.585Z,53.4
2023-03-29T13:24:39.553Z,53.4
2023-03-29T13:25:40.719Z,53.3
2023-03-29T13:26:41.697Z,53.2
2023-03-29T13:27:42.857Z,53.2
2023-03-29T13:28:44.026Z,53.1
2023-03-29T13:29:44.994Z,52.9
2023-03-29T13:30:45.964Z,52.5
2023-03-29T13:31:47.592Z,52.5
2023-03-29T13:32:48.919Z,52.7
2023-03-29T13:33:50.083Z,52.8
2023-03-29T13:34:51.273Z,52.7
2023-03-29T13:35:52.437Z,52.6
2023-03-29T13:36:53.697Z,52.8
2023-03-29T13:37:54.862Z,52.9
2023-03-29T13:38:56.030Z,53.1
2023-03-29T13:39:57.335Z,53.2
2023-03-29T13:40:58.511Z,53.3
2023-03-29T13:41:59.682Z,53.2